Time;durP1;ratioP1;P1;durP2;ratioP2;P2;SDS_P1;SDS_P2;PMS_P1;PMS_P2;Temp;Humidity;BMP_temperature;BMP_pressure;BME280_temperature;BME280_humidity;BME280_pressure;Samples;Min_cycle;Max_cycle;Signal;HPM_P1;HPM_P2
2021/12/22 00:00:55;;;;;;;;;;;0.60;89.10;;;;;;5027233;28;19909;-81
2021/12/22 00:03:21;;;;;;;;;;;0.60;89.40;;;;;;5018897;28;19905;-81
2021/12/22 00:05:48;;;;;;;;;;;0.60;89.50;;;;;;5021859;28;20347;-79
2021/12/22 00:08:14;;;;;;;;;;;0.50;89.50;;;;;;5025089;28;19909;-82
2021/12/22 00:10:40;;;;;;;;;;;0.50;89.70;;;;;;5025435;28;19905;-82
2021/12/22 00:13:06;;;;;;;;;;;0.50;89.70;;;;;;5038387;28;19955;-82
2021/12/22 00:15:32;;;;;;;;;;;0.50;89.60;;;;;;5027028;28;19909;-81
2021/12/22 00:17:58;;;;;;;;;;;0.50;89.60;;;;;;5036694;28;19956;-81
2021/12/22 00:20:23;;;;;;;;;;;0.50;89.80;;;;;;5018842;28;20379;-80
2021/12/22 00:22:49;;;;;;;;;;;0.50;90.00;;;;;;5035762;28;19995;-80
2021/12/22 00:25:16;;;;;;;;;;;0.40;90.10;;;;;;5038377;28;19912;-81
2021/12/22 00:27:41;;;;;;;;;;;0.50;90.30;;;;;;5037179;28;19909;-80
2021/12/22 00:30:08;;;;;;;;;;;0.50;90.30;;;;;;5038078;28;19914;-79
2021/12/22 00:32:36;;;;;;;;;;;0.50;90.30;;;;;;5036629;28;19969;-80
2021/12/22 00:35:02;;;;;;;;;;;0.50;90.30;;;;;;5037837;28;19948;-79
2021/12/22 00:37:28;;;;;;;;;;;0.50;90.40;;;;;;5032491;28;19910;-79
2021/12/22 00:39:55;;;;;;;;;;;0.50;90.40;;;;;;5030397;28;19913;-81
2021/12/22 00:42:20;;;;;;;;;;;0.50;90.40;;;;;;5025106;28;19909;-81
2021/12/22 00:44:49;;;;;;;;;;;0.50;90.40;;;;;;5037971;28;19905;-79
2021/12/22 00:47:16;;;;;;;;;;;0.40;90.30;;;;;;5031291;28;19909;-79
2021/12/22 00:49:42;;;;;;;;;;;0.50;90.40;;;;;;5030270;28;19905;-80
2021/12/22 00:52:08;;;;;;;;;;;0.50;90.50;;;;;;5037403;28;19980;-80
2021/12/22 00:54:34;;;;;;;;;;;0.50;90.60;;;;;;5037764;28;20368;-81
2021/12/22 00:57:05;;;;;;;;;;;0.50;90.70;;;;;;5037369;28;19909;-81
2021/12/22 00:59:31;;;;;;;;;;;0.60;90.80;;;;;;5026972;28;19967;-80
2021/12/22 01:01:58;;;;;;;;;;;0.60;90.80;;;;;;5037844;28;19955;-81
2021/12/22 01:04:23;;;;;;;;;;;0.60;90.80;;;;;;5037103;28;19905;-81
2021/12/22 01:06:49;;;;;;;;;;;0.60;90.70;;;;;;5035268;28;20322;-82
2021/12/22 01:09:15;;;;;;;;;;;0.70;90.70;;;;;;5036589;28;20430;-84
2021/12/22 01:11:40;;;;;;;;;;;0.70;90.70;;;;;;5035078;28;19916;-82
2021/12/22 01:14:06;;;;;;;;;;;0.70;90.70;;;;;;5020947;28;20403;-83
2021/12/22 01:16:32;;;;;;;;;;;0.70;90.60;;;;;;5037104;28;19912;-81
2021/12/22 01:19:02;;;;;;;;;;;0.70;90.60;;;;;;5037230;28;19955;-81
2021/12/22 01:21:38;;;;;;;;;;;0.70;90.60;;;;;;5035960;28;19908;-80
2021/12/22 01:24:20;;;;;;;;;;;0.70;90.60;;;;;;5027312;28;19905;-80
2021/12/22 01:26:51;;;;;;;;;;;0.70;90.50;;;;;;5036916;28;20011;-79
2021/12/22 01:29:17;;;;;;;;;;;0.60;90.50;;;;;;5036903;28;19913;-79
2021/12/22 01:31:43;;;;;;;;;;;0.60;90.50;;;;;;5036994;28;19915;-80
2021/12/22 01:34:09;;;;;;;;;;;0.60;90.50;;;;;;5036859;28;19936;-79
2021/12/22 01:36:35;;;;;;;;;;;0.60;90.40;;;;;;5035681;28;19916;-80
2021/12/22 01:39:01;;;;;;;;;;;0.60;90.40;;;;;;5027200;28;19909;-78
2021/12/22 01:41:26;;;;;;;;;;;0.50;90.40;;;;;;5030084;28;19921;-79
2021/12/22 01:43:54;;;;;;;;;;;0.50;90.40;;;;;;5037051;28;19912;-78
2021/12/22 01:49:09;;;;;;;;;;;0.50;90.40;;;;;;5037142;28;19909;-78
2021/12/22 01:49:36;;;;;;;;;;;0.40;90.40;;;;;;5033111;28;19917;-78
2021/12/22 01:52:06;;;;;;;;;;;0.40;90.40;;;;;;5039551;28;20356;-78
2021/12/22 01:54:50;;;;;;;;;;;0.30;90.30;;;;;;5040498;28;20360;-78
2021/12/22 01:57:16;;;;;;;;;;;0.30;90.30;;;;;;5039672;28;19916;-78
2021/12/22 01:59:43;;;;;;;;;;;0.30;90.30;;;;;;5039791;28;19963;-78
2021/12/22 02:02:10;;;;;;;;;;;0.30;90.40;;;;;;5033334;28;19905;-78
2021/12/22 02:04:38;;;;;;;;;;;0.20;90.60;;;;;;5040563;28;19932;-78
2021/12/22 02:07:04;;;;;;;;;;;0.20;90.30;;;;;;5037601;28;19909;-77
2021/12/22 02:12:02;;;;;;;;;;;0.20;90.40;;;;;;5040912;28;20334;-77
2021/12/22 02:14:27;;;;;;;;;;;0.20;90.30;;;;;;5037814;28;19959;-77
2021/12/22 02:16:53;;;;;;;;;;;0.20;90.30;;;;;;5038522;28;19909;-77
2021/12/22 02:19:19;;;;;;;;;;;0.20;90.40;;;;;;5040260;28;20018;-77
2021/12/22 02:21:51;;;;;;;;;;;0.20;90.40;;;;;;5040597;28;19916;-77
2021/12/22 02:24:17;;;;;;;;;;;0.20;90.40;;;;;;5029494;28;19916;-77
2021/12/22 02:26:52;;;;;;;;;;;0.20;90.40;;;;;;5040022;28;19909;-77
2021/12/22 02:29:23;;;;;;;;;;;0.20;90.40;;;;;;5038452;28;20364;-77
2021/12/22 02:32:03;;;;;;;;;;;0.30;90.40;;;;;;5038395;28;20327;-76
2021/12/22 02:34:29;;;;;;;;;;;0.30;90.50;;;;;;5039833;28;20368;-77
2021/12/22 02:36:59;;;;;;;;;;;0.30;90.40;;;;;;5039134;28;20004;-76
2021/12/22 02:39:25;;;;;;;;;;;0.30;90.40;;;;;;5039955;28;19913;-76
2021/12/22 02:41:50;;;;;;;;;;;0.30;90.40;;;;;;5038788;28;19917;-76
2021/12/22 02:44:16;;;;;;;;;;;0.30;90.40;;;;;;5038601;28;19981;-76
2021/12/22 02:46:42;;;;;;;;;;;0.30;90.40;;;;;;5040276;28;19999;-77
2021/12/22 02:49:08;;;;;;;;;;;0.30;90.40;;;;;;5039661;28;19912;-77
2021/12/22 02:51:35;;;;;;;;;;;0.30;90.40;;;;;;5040115;28;20331;-76
2021/12/22 02:54:10;;;;;;;;;;;0.30;90.30;;;;;;5039789;28;19955;-76
2021/12/22 02:56:41;;;;;;;;;;;0.40;90.30;;;;;;5041316;28;19959;-76
2021/12/22 03:02:19;;;;;;;;;;;0.30;90.10;;;;;;5038576;28;19972;-76
2021/12/22 03:04:50;;;;;;;;;;;0.30;90.10;;;;;;5037590;28;19971;-76
2021/12/22 03:07:18;;;;;;;;;;;0.30;90.10;;;;;;5032722;28;19905;-76
2021/12/22 03:09:44;;;;;;;;;;;0.30;90.10;;;;;;5038266;28;19905;-76
2021/12/22 03:12:11;;;;;;;;;;;0.30;90.10;;;;;;5039469;28;20724;-76
2021/12/22 03:14:36;;;;;;;;;;;0.30;90.00;;;;;;5036035;28;20291;-75
2021/12/22 03:17:02;;;;;;;;;;;0.30;89.80;;;;;;5038302;28;19910;-75
2021/12/22 03:19:29;;;;;;;;;;;0.20;89.70;;;;;;5037905;28;19908;-75
2021/12/22 03:22:02;;;;;;;;;;;0.20;89.60;;;;;;5039489;28;19916;-75
2021/12/22 03:24:29;;;;;;;;;;;0.10;89.50;;;;;;5039140;28;19939;-75
2021/12/22 03:26:59;;;;;;;;;;;0.10;89.50;;;;;;5039248;28;19932;-75
2021/12/22 03:29:24;;;;;;;;;;;0.10;89.50;;;;;;5038724;28;19936;-75
2021/12/22 03:31:50;;;;;;;;;;;0.10;89.70;;;;;;5039033;28;19905;-75
2021/12/22 03:34:16;;;;;;;;;;;0.10;89.80;;;;;;5038916;28;19931;-75
2021/12/22 03:36:43;;;;;;;;;;;0.10;89.90;;;;;;5038845;28;19917;-75
2021/12/22 03:39:09;;;;;;;;;;;0.10;89.90;;;;;;5038638;28;19959;-75
2021/12/22 03:41:35;;;;;;;;;;;0.10;90.00;;;;;;5038104;28;20328;-75
2021/12/22 03:44:01;;;;;;;;;;;0.10;90.00;;;;;;5049553;28;19951;-75
2021/12/22 03:46:27;;;;;;;;;;;0.10;90.00;;;;;;5052720;28;20377;-75
2021/12/22 03:48:53;;;;;;;;;;;0.00;89.90;;;;;;5044992;28;19961;-75
2021/12/22 03:51:19;;;;;;;;;;;0.10;90.00;;;;;;5042990;28;19962;-75
2021/12/22 03:53:44;;;;;;;;;;;0.00;89.80;;;;;;5050643;28;20414;-75
2021/12/22 03:56:10;;;;;;;;;;;0.10;89.90;;;;;;5040265;28;20020;-76
2021/12/22 03:58:35;;;;;;;;;;;0.10;89.80;;;;;;5056701;28;20371;-75
2021/12/22 04:01:01;;;;;;;;;;;0.10;89.70;;;;;;5042296;28;20273;-76
2021/12/22 04:03:31;;;;;;;;;;;0.10;89.70;;;;;;5040978;28;19917;-76
2021/12/22 04:05:57;;;;;;;;;;;0.10;89.60;;;;;;5038592;28;19913;-75
2021/12/22 04:08:22;;;;;;;;;;;0.10;89.40;;;;;;5038210;28;19915;-75
2021/12/22 04:10:49;;;;;;;;;;;0.00;89.10;;;;;;5040635;28;19909;-76
2021/12/22 04:13:15;;;;;;;;;;;0.00;89.10;;;;;;5037160;28;19929;-76
2021/12/22 04:15:41;;;;;;;;;;;0.00;89.10;;;;;;5037486;28;19943;-76
2021/12/22 04:18:07;;;;;;;;;;;-0.10;89.20;;;;;;5038408;28;19905;-76
2021/12/22 04:20:33;;;;;;;;;;;-0.10;89.30;;;;;;5037963;28;19919;-76
2021/12/22 04:22:59;;;;;;;;;;;-0.10;89.40;;;;;;5038128;28;19946;-76
2021/12/22 04:25:26;;;;;;;;;;;-0.10;89.30;;;;;;5038046;28;19909;-75
2021/12/22 04:27:55;;;;;;;;;;;-0.10;89.40;;;;;;5038264;28;19912;-76
2021/12/22 04:30:23;;;;;;;;;;;-0.10;89.50;;;;;;5038065;28;19905;-76
2021/12/22 04:32:49;;;;;;;;;;;-0.10;89.60;;;;;;5038093;28;19959;-75
2021/12/22 04:35:15;;;;;;;;;;;-0.10;89.60;;;;;;5024979;28;20008;-76
2021/12/22 04:37:41;;;;;;;;;;;-0.20;90.10;;;;;;5038081;28;20356;-76
2021/12/22 04:40:07;;;;;;;;;;;-0.20;89.90;;;;;;5037736;28;19938;-75
2021/12/22 04:42:33;;;;;;;;;;;-0.10;89.90;;;;;;5037946;28;20323;-75
2021/12/22 04:45:00;;;;;;;;;;;-0.10;90.00;;;;;;5038083;28;19912;-75
2021/12/22 04:47:26;;;;;;;;;;;-0.10;90.00;;;;;;5037937;28;19909;-76
2021/12/22 04:49:52;;;;;;;;;;;-0.10;90.10;;;;;;5037748;28;19905;-76
2021/12/22 04:52:20;;;;;;;;;;;-0.10;90.10;;;;;;5046058;28;20360;-75
2021/12/22 04:55:03;;;;;;;;;;;-0.10;90.10;;;;;;5037742;28;20398;-75
2021/12/22 04:57:32;;;;;;;;;;;-0.10;90.10;;;;;;5041793;28;20360;-75
2021/12/22 04:59:59;;;;;;;;;;;-0.10;90.00;;;;;;5045503;28;19979;-75
2021/12/22 05:02:24;;;;;;;;;;;-0.10;90.00;;;;;;5051780;28;20416;-76
2021/12/22 05:04:50;;;;;;;;;;;-0.10;90.00;;;;;;5042675;28;19956;-76
2021/12/22 05:07:16;;;;;;;;;;;-0.20;89.90;;;;;;5043312;28;19909;-76
2021/12/22 05:09:41;;;;;;;;;;;-0.20;89.90;;;;;;5030083;28;19921;-75
2021/12/22 05:12:07;;;;;;;;;;;-0.20;89.90;;;;;;5036268;28;19959;-76
2021/12/22 05:14:33;;;;;;;;;;;-0.20;89.90;;;;;;5031177;28;19913;-76
2021/12/22 05:17:01;;;;;;;;;;;-0.20;89.90;;;;;;5037737;28;20360;-76
2021/12/22 05:19:27;;;;;;;;;;;-0.20;90.00;;;;;;5038012;28;20007;-76
2021/12/22 05:21:53;;;;;;;;;;;-0.20;89.80;;;;;;5044088;28;19960;-75
2021/12/22 05:24:19;;;;;;;;;;;-0.20;89.70;;;;;;5039694;28;19910;-76
2021/12/22 05:26:45;;;;;;;;;;;-0.20;89.80;;;;;;5054854;28;19913;-76
2021/12/22 05:29:12;;;;;;;;;;;-0.20;89.90;;;;;;5034441;28;19910;-76
2021/12/22 05:31:37;;;;;;;;;;;-0.20;89.90;;;;;;5045638;28;19915;-76
2021/12/22 05:34:03;;;;;;;;;;;-0.20;90.00;;;;;;5052597;28;19908;-75
2021/12/22 05:36:29;;;;;;;;;;;-0.20;90.00;;;;;;5054491;28;19996;-75
2021/12/22 05:38:55;;;;;;;;;;;-0.20;90.00;;;;;;5043720;28;19955;-76
2021/12/22 05:41:21;;;;;;;;;;;-0.20;90.00;;;;;;5054524;28;19916;-76
2021/12/22 05:43:46;;;;;;;;;;;-0.20;90.10;;;;;;5046773;28;19932;-75
2021/12/22 05:46:12;;;;;;;;;;;-0.20;90.10;;;;;;5041772;28;19909;-76
2021/12/22 05:48:37;;;;;;;;;;;-0.20;90.20;;;;;;5048575;28;19988;-75
2021/12/22 05:51:03;;;;;;;;;;;-0.20;90.20;;;;;;5041211;28;19912;-76
2021/12/22 05:53:29;;;;;;;;;;;-0.30;90.20;;;;;;5039786;28;19905;-75
2021/12/22 05:55:55;;;;;;;;;;;-0.20;90.20;;;;;;5041078;28;19919;-76
2021/12/22 05:58:21;;;;;;;;;;;-0.30;90.10;;;;;;5041144;28;19920;-75
2021/12/22 06:00:47;;;;;;;;;;;-0.30;90.10;;;;;;5040844;28;19905;-75
2021/12/22 06:03:12;;;;;;;;;;;-0.20;90.20;;;;;;5044316;28;19916;-76
2021/12/22 06:05:39;;;;;;;;;;;-0.20;90.20;;;;;;5053760;28;19909;-76
2021/12/22 06:08:04;;;;;;;;;;;-0.20;90.10;;;;;;5047199;28;20303;-76
2021/12/22 06:10:30;;;;;;;;;;;-0.20;90.10;;;;;;5046222;28;19909;-76
2021/12/22 06:12:56;;;;;;;;;;;-0.20;90.00;;;;;;5046851;28;19909;-75
2021/12/22 06:15:22;;;;;;;;;;;-0.20;89.90;;;;;;5049261;28;19908;-75
2021/12/22 06:17:53;;;;;;;;;;;-0.30;89.70;;;;;;5055220;28;19909;-76
2021/12/22 06:20:19;;;;;;;;;;;-0.30;89.60;;;;;;5049586;28;19913;-76
2021/12/22 06:22:44;;;;;;;;;;;-0.30;89.60;;;;;;5044293;28;19920;-76
2021/12/22 06:25:11;;;;;;;;;;;-0.30;89.70;;;;;;5053100;28;19909;-75
2021/12/22 06:27:37;;;;;;;;;;;-0.30;89.80;;;;;;5041345;28;19916;-76
2021/12/22 06:30:03;;;;;;;;;;;-0.40;89.70;;;;;;5040638;28;20368;-76
2021/12/22 06:32:28;;;;;;;;;;;-0.40;89.70;;;;;;5043568;28;19944;-76
2021/12/22 06:34:54;;;;;;;;;;;-0.40;90.10;;;;;;5053098;28;19912;-76
2021/12/22 06:37:20;;;;;;;;;;;-0.40;89.60;;;;;;5041201;28;20376;-75
2021/12/22 06:39:45;;;;;;;;;;;-0.40;89.60;;;;;;5051811;28;19940;-75
2021/12/22 06:42:11;;;;;;;;;;;-0.40;89.60;;;;;;5050850;28;19917;-76
2021/12/22 06:44:37;;;;;;;;;;;-0.40;89.80;;;;;;5040186;28;20011;-75
2021/12/22 06:47:03;;;;;;;;;;;-0.40;90.00;;;;;;5040578;28;19958;-75
2021/12/22 06:49:28;;;;;;;;;;;-0.40;90.00;;;;;;5040349;28;19905;-75
2021/12/22 06:51:54;;;;;;;;;;;-0.40;90.00;;;;;;5041863;28;19905;-76
2021/12/22 06:54:20;;;;;;;;;;;-0.40;90.00;;;;;;5039774;28;20380;-76
2021/12/22 06:56:45;;;;;;;;;;;-0.40;90.00;;;;;;5039986;28;19916;-75
2021/12/22 06:59:13;;;;;;;;;;;-0.40;90.00;;;;;;5051028;28;19915;-76
2021/12/22 07:01:39;;;;;;;;;;;-0.40;90.00;;;;;;5043515;28;19916;-76
2021/12/22 07:04:06;;;;;;;;;;;-0.40;89.90;;;;;;5043746;28;19908;-76
2021/12/22 07:06:32;;;;;;;;;;;-0.40;89.90;;;;;;5055598;28;20339;-76
2021/12/22 07:08:58;;;;;;;;;;;-0.40;89.80;;;;;;5038459;28;19905;-76
2021/12/22 07:11:24;;;;;;;;;;;-0.50;89.70;;;;;;5046311;28;19909;-76
2021/12/22 07:13:50;;;;;;;;;;;-0.50;89.80;;;;;;5041958;28;19912;-76
2021/12/22 07:16:16;;;;;;;;;;;-0.50;90.00;;;;;;5041450;28;20433;-76
2021/12/22 07:18:41;;;;;;;;;;;-0.50;90.00;;;;;;5052465;28;19913;-76
2021/12/22 07:21:07;;;;;;;;;;;-0.50;90.10;;;;;;5052763;28;20423;-76
2021/12/22 07:23:32;;;;;;;;;;;-0.40;90.20;;;;;;5038686;28;19972;-76
2021/12/22 07:25:58;;;;;;;;;;;-0.40;90.10;;;;;;5052229;28;20364;-76
2021/12/22 07:28:24;;;;;;;;;;;-0.40;90.10;;;;;;5045304;28;19909;-76
2021/12/22 07:30:49;;;;;;;;;;;-0.50;90.10;;;;;;5042981;28;19905;-76
2021/12/22 07:33:15;;;;;;;;;;;-0.50;90.10;;;;;;5037473;28;19912;-76
2021/12/22 07:35:55;;;;;;;;;;;-0.50;90.00;;;;;;5034700;28;19905;-76
2021/12/22 07:38:24;;;;;;;;;;;-0.50;90.10;;;;;;5035579;28;20272;-76
2021/12/22 07:40:50;;;;;;;;;;;-0.50;90.20;;;;;;5048885;28;20362;-76
2021/12/22 07:43:16;;;;;;;;;;;-0.50;90.20;;;;;;5044217;28;19909;-76
2021/12/22 07:45:42;;;;;;;;;;;-0.40;90.30;;;;;;5046118;28;19909;-76
2021/12/22 07:48:07;;;;;;;;;;;-0.50;90.20;;;;;;5047989;28;19921;-76
2021/12/22 07:50:33;;;;;;;;;;;-0.50;90.30;;;;;;5054193;28;19909;-76
2021/12/22 07:52:58;;;;;;;;;;;-0.50;90.40;;;;;;5053369;28;19944;-76
2021/12/22 07:55:24;;;;;;;;;;;-0.50;90.40;;;;;;5053231;28;19917;-76
2021/12/22 07:57:50;;;;;;;;;;;-0.50;90.40;;;;;;5047303;28;19945;-77
2021/12/22 08:00:16;;;;;;;;;;;-0.50;90.40;;;;;;5040065;28;19921;-76
2021/12/22 08:02:41;;;;;;;;;;;-0.50;90.40;;;;;;5040801;28;19912;-77
2021/12/22 08:05:07;;;;;;;;;;;-0.50;90.40;;;;;;5046339;28;19913;-77
2021/12/22 08:07:34;;;;;;;;;;;-0.50;90.40;;;;;;5038098;28;19909;-77
2021/12/22 08:10:01;;;;;;;;;;;-0.50;90.40;;;;;;5048776;28;19986;-78
2021/12/22 08:12:27;;;;;;;;;;;-0.40;90.50;;;;;;5036910;28;19955;-78
2021/12/22 08:14:52;;;;;;;;;;;-0.40;90.40;;;;;;5034932;28;19905;-77
2021/12/22 08:17:20;;;;;;;;;;;-0.40;90.40;;;;;;5025395;28;19913;-77
2021/12/22 08:19:46;;;;;;;;;;;-0.40;90.40;;;;;;5030016;28;19913;-77
2021/12/22 08:22:12;;;;;;;;;;;-0.40;90.30;;;;;;5035898;28;19905;-76
2021/12/22 08:24:37;;;;;;;;;;;-0.40;90.30;;;;;;5028905;28;19917;-76
2021/12/22 08:27:03;;;;;;;;;;;-0.40;90.30;;;;;;5032663;28;19909;-77
2021/12/22 08:29:29;;;;;;;;;;;-0.40;90.20;;;;;;5035898;28;19916;-76
2021/12/22 08:31:55;;;;;;;;;;;-0.40;90.20;;;;;;5036868;28;19909;-76
2021/12/22 08:34:35;;;;;;;;;;;-0.40;90.20;;;;;;5025311;28;19933;-73
2021/12/22 08:39:44;;;;;;;;;;;-0.50;90.40;;;;;;5030324;28;19920;-73
2021/12/22 08:42:10;;;;;;;;;;;-0.50;90.40;;;;;;5037255;28;19917;-76
2021/12/22 08:44:36;;;;;;;;;;;-0.40;90.40;;;;;;5035005;28;19955;-78
2021/12/22 08:47:02;;;;;;;;;;;-0.40;90.50;;;;;;5032455;28;20427;-77
2021/12/22 08:49:29;;;;;;;;;;;-0.40;90.50;;;;;;5037607;28;19951;-77
2021/12/22 08:51:55;;;;;;;;;;;-0.40;90.40;;;;;;5037866;28;20012;-77
2021/12/22 08:54:20;;;;;;;;;;;-0.40;90.40;;;;;;5037604;28;19937;-76
2021/12/22 08:56:46;;;;;;;;;;;-0.40;90.40;;;;;;5038374;28;19911;-76
2021/12/22 08:59:13;;;;;;;;;;;-0.40;90.40;;;;;;5036669;28;19916;-77
2021/12/22 09:01:39;;;;;;;;;;;-0.30;90.40;;;;;;5038034;28;19940;-77
2021/12/22 09:04:04;;;;;;;;;;;-0.30;90.30;;;;;;5037374;28;20253;-75
2021/12/22 09:06:30;;;;;;;;;;;-0.30;90.30;;;;;;5038066;28;19912;-76
2021/12/22 09:08:56;;;;;;;;;;;-0.30;90.30;;;;;;5037220;28;19908;-76
2021/12/22 09:11:22;;;;;;;;;;;-0.30;90.30;;;;;;5036665;28;19905;-77
2021/12/22 09:13:48;;;;;;;;;;;-0.30;90.30;;;;;;5033606;28;19955;-77
2021/12/22 09:16:14;;;;;;;;;;;-0.30;90.40;;;;;;5036393;28;19913;-77
2021/12/22 09:18:40;;;;;;;;;;;-0.30;90.40;;;;;;5037182;28;20380;-75
2021/12/22 09:21:06;;;;;;;;;;;-0.20;90.50;;;;;;5037624;28;20355;-75
2021/12/22 09:23:32;;;;;;;;;;;-0.10;90.40;;;;;;5037588;28;19905;-75
2021/12/22 09:25:58;;;;;;;;;;;-0.10;90.40;;;;;;5037559;28;20288;-75
2021/12/22 09:28:24;;;;;;;;;;;-0.10;90.40;;;;;;5037427;28;19913;-76
2021/12/22 09:30:49;;;;;;;;;;;0.00;90.30;;;;;;5037708;28;19959;-75
2021/12/22 09:33:17;;;;;;;;;;;0.00;90.30;;;;;;5035672;28;19920;-76
2021/12/22 09:35:44;;;;;;;;;;;0.00;90.20;;;;;;5036245;28;19963;-75
2021/12/22 09:38:10;;;;;;;;;;;0.00;90.10;;;;;;5037338;28;19924;-76
2021/12/22 09:40:36;;;;;;;;;;;0.00;90.20;;;;;;5031719;28;19921;-75
2021/12/22 09:43:02;;;;;;;;;;;0.10;90.20;;;;;;5028573;28;19912;-76
2021/12/22 09:45:28;;;;;;;;;;;0.10;90.50;;;;;;5036272;28;19905;-76
2021/12/22 09:48:23;;;;;;;;;;;0.10;90.20;;;;;;5036443;28;19905;-76
2021/12/22 09:52:15;;;;;;;;;;;0.10;90.20;;;;;;5036032;28;19905;-74
2021/12/22 09:53:36;;;;;;;;;;;0.20;90.20;;;;;;5035023;28;19912;-74
2021/12/22 09:56:02;;;;;;;;;;;0.20;90.20;;;;;;5037292;28;19913;-71
2021/12/22 09:58:28;;;;;;;;;;;0.30;90.20;;;;;;5036635;28;20261;-73
2021/12/22 10:00:54;;;;;;;;;;;0.30;90.10;;;;;;5036399;28;19928;-72
2021/12/22 10:03:21;;;;;;;;;;;0.30;90.00;;;;;;5035685;28;19915;-72
2021/12/22 10:05:47;;;;;;;;;;;0.30;90.00;;;;;;5036664;28;20287;-75
2021/12/22 10:08:12;;;;;;;;;;;0.40;90.00;;;;;;5035316;28;19999;-74
2021/12/22 10:10:40;;;;;;;;;;;0.40;90.00;;;;;;5037828;28;19905;-73
2021/12/22 10:13:07;;;;;;;;;;;0.40;90.00;;;;;;5040805;28;19905;-73
2021/12/22 10:15:35;;;;;;;;;;;0.50;90.00;;;;;;5035407;28;19995;-73
2021/12/22 10:18:09;;;;;;;;;;;0.50;89.90;;;;;;5040484;28;19912;-78
2021/12/22 10:20:35;;;;;;;;;;;0.50;89.80;;;;;;5039838;28;20081;-76
2021/12/22 10:23:00;;;;;;;;;;;0.50;89.70;;;;;;5039147;28;19905;-78
2021/12/22 10:25:29;;;;;;;;;;;0.60;89.70;;;;;;5039056;28;20375;-77
2021/12/22 10:28:04;;;;;;;;;;;0.50;89.50;;;;;;5039247;28;20425;-76
2021/12/22 10:30:37;;;;;;;;;;;0.50;89.50;;;;;;5038630;28;19905;-76
2021/12/22 10:33:08;;;;;;;;;;;0.60;89.40;;;;;;5039127;28;19955;-77
2021/12/22 10:35:34;;;;;;;;;;;0.60;89.30;;;;;;5039229;28;19957;-75
2021/12/22 10:38:01;;;;;;;;;;;0.60;89.50;;;;;;5052291;28;19905;-76
2021/12/22 10:40:29;;;;;;;;;;;0.60;89.60;;;;;;5042707;28;20356;-76
2021/12/22 10:42:55;;;;;;;;;;;0.60;89.70;;;;;;5059023;28;19905;-76
2021/12/22 10:45:22;;;;;;;;;;;0.60;89.60;;;;;;5040959;28;19909;-77
2021/12/22 10:50:41;;;;;;;;;;;0.70;89.70;;;;;;5050092;28;19905;-78
2021/12/22 10:53:08;;;;;;;;;;;0.70;89.70;;;;;;5033134;28;20351;-76
2021/12/22 10:55:40;;;;;;;;;;;0.80;90.00;;;;;;5054440;28;19905;-76
2021/12/22 10:58:16;;;;;;;;;;;0.80;89.80;;;;;;5040599;28;19905;-79
2021/12/22 11:00:42;;;;;;;;;;;0.90;89.60;;;;;;5043115;28;19935;-74
2021/12/22 11:03:09;;;;;;;;;;;0.90;89.30;;;;;;5050377;28;19905;-76
2021/12/22 11:05:42;;;;;;;;;;;0.90;89.20;;;;;;5039873;28;19959;-80
2021/12/22 11:08:17;;;;;;;;;;;1.00;89.00;;;;;;5043754;28;19952;-78
2021/12/22 11:10:42;;;;;;;;;;;1.00;88.80;;;;;;5038151;28;19980;-82
2021/12/22 11:13:08;;;;;;;;;;;1.00;88.60;;;;;;5036104;28;20399;-77
2021/12/22 11:15:41;;;;;;;;;;;1.00;88.30;;;;;;5029398;28;19912;-81
2021/12/22 11:18:10;;;;;;;;;;;1.00;88.10;;;;;;5033619;28;19980;-80
2021/12/22 11:20:35;;;;;;;;;;;1.00;88.00;;;;;;5031165;28;19939;-79
2021/12/22 11:23:02;;;;;;;;;;;1.00;87.80;;;;;;5037359;28;20250;-76
2021/12/22 11:25:28;;;;;;;;;;;1.00;87.90;;;;;;5035688;28;19944;-79
2021/12/22 11:27:55;;;;;;;;;;;1.00;88.00;;;;;;5033661;28;19972;-77
2021/12/22 11:30:28;;;;;;;;;;;1.00;88.10;;;;;;5042830;28;19912;-77
2021/12/22 11:32:56;;;;;;;;;;;1.00;88.20;;;;;;5037363;28;19909;-77
2021/12/22 11:35:23;;;;;;;;;;;1.10;88.30;;;;;;5039300;28;20451;-77
2021/12/22 11:37:49;;;;;;;;;;;1.20;88.10;;;;;;5038208;28;19916;-75
2021/12/22 11:40:17;;;;;;;;;;;1.20;88.00;;;;;;5037972;28;19925;-77
2021/12/22 11:42:43;;;;;;;;;;;1.30;88.10;;;;;;5034207;28;19910;-72
2021/12/22 11:45:10;;;;;;;;;;;1.30;88.00;;;;;;5037802;28;19958;-73
2021/12/22 11:47:39;;;;;;;;;;;1.40;88.10;;;;;;5038848;28;19941;-74
2021/12/22 11:50:06;;;;;;;;;;;1.50;88.20;;;;;;5036614;28;19913;-73
2021/12/22 11:52:36;;;;;;;;;;;1.50;87.80;;;;;;5038903;28;19909;-72
2021/12/22 11:55:21;;;;;;;;;;;1.50;88.00;;;;;;5038226;28;19912;-73
2021/12/22 11:57:48;;;;;;;;;;;1.50;87.20;;;;;;5037233;28;19909;-73
2021/12/22 12:00:33;;;;;;;;;;;1.60;87.30;;;;;;5037286;28;19917;-70
2021/12/22 12:03:18;;;;;;;;;;;1.60;87.30;;;;;;5036372;28;19952;-77
2021/12/22 12:06:00;;;;;;;;;;;1.70;87.30;;;;;;5037194;28;19913;-76
2021/12/22 12:08:32;;;;;;;;;;;1.80;87.20;;;;;;5036763;28;20419;-77
2021/12/22 12:10:59;;;;;;;;;;;1.80;86.80;;;;;;5036424;28;19941;-76
2021/12/22 12:13:34;;;;;;;;;;;1.80;86.60;;;;;;5035682;28;19956;-74
2021/12/22 12:21:39;;;;;;;;;;;1.80;86.60;;;;;;5038189;28;19931;-75
2021/12/22 12:21:54;;;;;;;;;;;1.90;86.20;;;;;;5036774;28;19955;-73
2021/12/22 12:24:32;;;;;;;;;;;1.90;86.00;;;;;;5031441;28;19916;-73
2021/12/22 12:26:58;;;;;;;;;;;1.90;85.90;;;;;;5032613;28;19913;-72
2021/12/22 12:29:57;;;;;;;;;;;1.90;85.90;;;;;;5036299;28;19915;-80
2021/12/22 12:32:40;;;;;;;;;;;1.80;85.80;;;;;;5041705;28;20011;-74
2021/12/22 12:35:28;;;;;;;;;;;1.80;85.90;;;;;;5036867;28;19917;-78
2021/12/22 12:37:58;;;;;;;;;;;1.80;86.00;;;;;;5036800;28;19920;-78
2021/12/22 12:40:24;;;;;;;;;;;1.90;86.10;;;;;;5034713;28;19917;-82
2021/12/22 12:42:59;;;;;;;;;;;1.90;86.10;;;;;;5029926;28;19928;-75
2021/12/22 12:45:40;;;;;;;;;;;1.90;86.00;;;;;;5033306;28;19962;-78
2021/12/22 12:48:25;;;;;;;;;;;1.90;86.10;;;;;;5036171;28;19919;-78
2021/12/22 12:51:09;;;;;;;;;;;2.00;86.20;;;;;;5036411;28;20322;-78
2021/12/22 12:53:42;;;;;;;;;;;2.00;86.20;;;;;;5037612;28;19909;-79
2021/12/22 12:56:08;;;;;;;;;;;2.10;86.10;;;;;;5037445;28;19905;-77
2021/12/22 12:58:34;;;;;;;;;;;2.10;85.90;;;;;;5035078;28;19959;-75
2021/12/22 13:01:00;;;;;;;;;;;2.10;85.80;;;;;;5036970;28;19910;-85
2021/12/22 13:03:25;;;;;;;;;;;2.10;85.80;;;;;;5034546;28;19959;-78
2021/12/22 13:05:51;;;;;;;;;;;2.20;85.80;;;;;;5036202;28;19996;-76
2021/12/22 13:08:17;;;;;;;;;;;2.20;85.60;;;;;;5037328;28;19905;-82
2021/12/22 13:10:50;;;;;;;;;;;2.20;85.30;;;;;;5034767;28;19909;-78
2021/12/22 13:13:18;;;;;;;;;;;2.20;85.20;;;;;;5037237;28;19912;-83
2021/12/22 13:15:46;;;;;;;;;;;2.20;85.40;;;;;;5031228;28;19932;-76
2021/12/22 13:18:14;;;;;;;;;;;2.20;85.20;;;;;;5035917;28;19912;-78
2021/12/22 13:20:44;;;;;;;;;;;2.20;85.00;;;;;;5032669;28;19908;-76
2021/12/22 13:23:11;;;;;;;;;;;2.20;85.10;;;;;;5035862;28;19905;-77
2021/12/22 13:25:38;;;;;;;;;;;2.20;85.20;;;;;;5037035;28;20287;-77
2021/12/22 13:28:05;;;;;;;;;;;2.20;85.10;;;;;;5032219;28;19905;-77
2021/12/22 13:30:32;;;;;;;;;;;2.20;85.10;;;;;;5037726;28;19905;-75
2021/12/22 13:32:58;;;;;;;;;;;2.20;85.20;;;;;;5040191;28;19908;-75
2021/12/22 13:35:27;;;;;;;;;;;2.20;85.50;;;;;;5035980;28;19905;-81
2021/12/22 13:37:53;;;;;;;;;;;2.30;85.70;;;;;;5037239;28;20417;-75
2021/12/22 13:40:34;;;;;;;;;;;2.30;85.70;;;;;;5029819;28;20008;-73
2021/12/22 13:43:00;;;;;;;;;;;2.40;85.50;;;;;;5032030;28;19913;-73
2021/12/22 13:45:25;;;;;;;;;;;2.40;85.50;;;;;;5045925;28;20043;-73
2021/12/22 13:47:51;;;;;;;;;;;2.40;85.40;;;;;;5045347;28;19916;-74
2021/12/22 13:50:17;;;;;;;;;;;2.30;85.30;;;;;;5047047;28;19916;-73
2021/12/22 13:52:43;;;;;;;;;;;2.30;85.20;;;;;;5041182;28;19909;-73
2021/12/22 13:55:09;;;;;;;;;;;2.30;85.10;;;;;;5044913;28;19911;-73
2021/12/22 13:57:35;;;;;;;;;;;2.30;85.20;;;;;;5047074;28;19904;-74
2021/12/22 14:00:01;;;;;;;;;;;2.30;85.20;;;;;;5041694;28;20000;-75
2021/12/22 14:02:34;;;;;;;;;;;2.20;85.20;;;;;;5039151;28;19948;-74
2021/12/22 14:05:16;;;;;;;;;;;2.20;85.30;;;;;;5038965;28;19909;-75
2021/12/22 14:07:42;;;;;;;;;;;2.10;85.40;;;;;;5039306;28;19959;-74
2021/12/22 14:10:12;;;;;;;;;;;2.10;85.60;;;;;;5039066;28;19912;-74
2021/12/22 14:12:40;;;;;;;;;;;2.10;85.80;;;;;;5037912;28;19916;-75
2021/12/22 14:15:06;;;;;;;;;;;2.10;86.00;;;;;;5037470;28;19912;-74
2021/12/22 14:17:33;;;;;;;;;;;2.00;86.10;;;;;;5041622;28;19916;-74
2021/12/22 14:20:00;;;;;;;;;;;2.00;86.30;;;;;;5039333;28;20461;-74
2021/12/22 14:22:28;;;;;;;;;;;2.10;86.50;;;;;;5036332;28;19909;-74
2021/12/22 14:24:53;;;;;;;;;;;2.00;86.50;;;;;;5043724;28;19943;-74
2021/12/22 14:27:48;;;;;;;;;;;2.00;86.50;;;;;;5040142;28;20552;-73
2021/12/22 14:30:20;;;;;;;;;;;2.00;86.50;;;;;;5031458;28;19913;-73
2021/12/22 14:32:52;;;;;;;;;;;2.00;86.50;;;;;;5040775;28;19909;-73
2021/12/22 14:35:19;;;;;;;;;;;2.00;86.60;;;;;;5036990;28;19967;-73
2021/12/22 14:37:44;;;;;;;;;;;2.00;86.60;;;;;;5037824;28;19909;-73
2021/12/22 14:40:14;;;;;;;;;;;2.00;86.70;;;;;;5041453;28;19920;-73
2021/12/22 14:42:40;;;;;;;;;;;1.90;86.80;;;;;;5055880;28;19917;-72
2021/12/22 14:45:21;;;;;;;;;;;1.90;87.10;;;;;;5044787;28;19913;-72